sensor_id;sensor_type;location;lat;lon;timestamp;pressure;altitude;pressure_sealevel;temperature;humidity
59787;BME280;45672;51.612;5.536;2024-01-30T00:02:12;102431.19;;;6.88;100.00
59787;BME280;45672;51.612;5.536;2024-01-30T00:04:38;102433.75;;;6.90;100.00
59787;BME280;45672;51.612;5.536;2024-01-30T00:07:03;102432.03;;;6.89;100.00
59787;BME280;45672;51.612;5.536;2024-01-30T00:09:29;102427.75;;;6.86;100.00
59787;BME280;45672;51.612;5.536;2024-01-30T00:11:54;102434.13;;;6.84;100.00
59787;BME280;45672;51.612;5.536;2024-01-30T00:14:19;102432.31;;;6.84;100.00
59787;BME280;45672;51.612;5.536;2024-01-30T00:16:44;102430.69;;;6.82;100.00
59787;BME280;45672;51.612;5.536;2024-01-30T00:19:10;102434.47;;;6.78;100.00
59787;BME280;45672;51.612;5.536;2024-01-30T00:21:36;102438.06;;;6.77;100.00
59787;BME280;45672;51.612;5.536;2024-01-30T00:24:01;102428.63;;;6.72;100.00
59787;BME280;45672;51.612;5.536;2024-01-30T00:26:26;102420.38;;;6.63;100.00
59787;BME280;45672;51.612;5.536;2024-01-30T00:28:52;102421.38;;;6.60;100.00
59787;BME280;45672;51.612;5.536;2024-01-30T00:31:17;102417.13;;;6.58;100.00
59787;BME280;45672;51.612;5.536;2024-01-30T00:33:42;102425.94;;;6.58;100.00
59787;BME280;45672;51.612;5.536;2024-01-30T00:36:09;102420.78;;;6.55;100.00
59787;BME280;45672;51.612;5.536;2024-01-30T00:38:35;102409.56;;;6.51;100.00
59787;BME280;45672;51.612;5.536;2024-01-30T00:41:00;102417.22;;;6.56;100.00
59787;BME280;45672;51.612;5.536;2024-01-30T00:43:27;102419.13;;;6.54;100.00
59787;BME280;45672;51.612;5.536;2024-01-30T00:45:53;102418.34;;;6.52;100.00
59787;BME280;45672;51.612;5.536;2024-01-30T00:48:18;102414.84;;;6.51;100.00
59787;BME280;45672;51.612;5.536;2024-01-30T00:50:44;102413.97;;;6.51;100.00
59787;BME280;45672;51.612;5.536;2024-01-30T00:53:09;102414.25;;;6.46;100.00
59787;BME280;45672;51.612;5.536;2024-01-30T00:55:35;102410.97;;;6.43;100.00
59787;BME280;45672;51.612;5.536;2024-01-30T00:58:00;102405.66;;;6.43;100.00
59787;BME280;45672;51.612;5.536;2024-01-30T01:00:26;102397.97;;;6.38;100.00
59787;BME280;45672;51.612;5.536;2024-01-30T01:02:55;102386.06;;;6.31;100.00
59787;BME280;45672;51.612;5.536;2024-01-30T01:05:20;102399.78;;;6.37;100.00
59787;BME280;45672;51.612;5.536;2024-01-30T01:07:45;102400.63;;;6.38;100.00
59787;BME280;45672;51.612;5.536;2024-01-30T01:10:12;102397.97;;;6.38;100.00
59787;BME280;45672;51.612;5.536;2024-01-30T01:12:39;102401.69;;;6.35;100.00
59787;BME280;45672;51.612;5.536;2024-01-30T01:15:04;102399.28;;;6.31;100.00
59787;BME280;45672;51.612;5.536;2024-01-30T01:17:30;102397.59;;;6.30;100.00
59787;BME280;45672;51.612;5.536;2024-01-30T01:19:55;102394.09;;;6.29;100.00
59787;BME280;45672;51.612;5.536;2024-01-30T01:22:20;102398.72;;;6.26;100.00
59787;BME280;45672;51.612;5.536;2024-01-30T01:24:46;102397.94;;;6.24;100.00
59787;BME280;45672;51.612;5.536;2024-01-30T01:27:11;102387.38;;;6.24;100.00
59787;BME280;45672;51.612;5.536;2024-01-30T01:29:37;102399.91;;;6.20;100.00
59787;BME280;45672;51.612;5.536;2024-01-30T01:32:03;102392.16;;;6.17;100.00
59787;BME280;45672;51.612;5.536;2024-01-30T01:34:28;102390.28;;;6.19;100.00
59787;BME280;45672;51.612;5.536;2024-01-30T01:36:53;102381.66;;;6.15;100.00
59787;BME280;45672;51.612;5.536;2024-01-30T01:39:20;102377.91;;;6.19;100.00
59787;BME280;45672;51.612;5.536;2024-01-30T01:41:46;102385.31;;;6.29;100.00
59787;BME280;45672;51.612;5.536;2024-01-30T01:44:11;102386.34;;;6.26;100.00
59787;BME280;45672;51.612;5.536;2024-01-30T01:46:37;102377.47;;;6.27;100.00
59787;BME280;45672;51.612;5.536;2024-01-30T01:49:03;102384.53;;;6.27;100.00
59787;BME280;45672;51.612;5.536;2024-01-30T01:51:31;102374.06;;;6.25;100.00
59787;BME280;45672;51.612;5.536;2024-01-30T01:53:57;102380.03;;;6.29;100.00
59787;BME280;45672;51.612;5.536;2024-01-30T01:56:23;102380.03;;;6.29;100.00
59787;BME280;45672;51.612;5.536;2024-01-30T01:58:49;102370.09;;;6.32;100.00
59787;BME280;45672;51.612;5.536;2024-01-30T02:01:16;102382.22;;;6.36;100.00
59787;BME280;45672;51.612;5.536;2024-01-30T02:03:42;102374.38;;;6.35;100.00
59787;BME280;45672;51.612;5.536;2024-01-30T02:06:08;102375.06;;;6.38;100.00
59787;BME280;45672;51.612;5.536;2024-01-30T02:08:33;102375.63;;;6.44;100.00
59787;BME280;45672;51.612;5.536;2024-01-30T02:10:59;102377.25;;;6.46;100.00
59787;BME280;45672;51.612;5.536;2024-01-30T02:13:24;102371.84;;;6.48;100.00
59787;BME280;45672;51.612;5.536;2024-01-30T02:15:51;102371.59;;;6.52;100.00
59787;BME280;45672;51.612;5.536;2024-01-30T02:18:16;102369.03;;;6.51;100.00
59787;BME280;45672;51.612;5.536;2024-01-30T02:20:41;102370.94;;;6.49;100.00
59787;BME280;45672;51.612;5.536;2024-01-30T02:23:09;102365.81;;;6.46;100.00
59787;BME280;45672;51.612;5.536;2024-01-30T02:25:42;102363.38;;;6.43;100.00
59787;BME280;45672;51.612;5.536;2024-01-30T02:28:13;102367.03;;;6.40;100.00
59787;BME280;45672;51.612;5.536;2024-01-30T02:30:39;102352.47;;;6.33;100.00
59787;BME280;45672;51.612;5.536;2024-01-30T02:33:04;102360.31;;;6.34;100.00
59787;BME280;45672;51.612;5.536;2024-01-30T02:35:30;102350.84;;;6.30;100.00
59787;BME280;45672;51.612;5.536;2024-01-30T02:37:55;102364.72;;;6.34;100.00
59787;BME280;45672;51.612;5.536;2024-01-30T02:40:21;102372.66;;;6.34;100.00
59787;BME280;45672;51.612;5.536;2024-01-30T02:42:46;102362.09;;;6.34;100.00
59787;BME280;45672;51.612;5.536;2024-01-30T02:45:12;102367.31;;;6.35;100.00
59787;BME280;45672;51.612;5.536;2024-01-30T02:47:38;102357.66;;;6.34;100.00
59787;BME280;45672;51.612;5.536;2024-01-30T02:50:04;102358.50;;;6.35;100.00
59787;BME280;45672;51.612;5.536;2024-01-30T02:52:30;102360.31;;;6.34;100.00
59787;BME280;45672;51.612;5.536;2024-01-30T02:54:56;102355.97;;;6.33;100.00
59787;BME280;45672;51.612;5.536;2024-01-30T02:57:21;102349.06;;;6.31;100.00
59787;BME280;45672;51.612;5.536;2024-01-30T02:59:46;102346.50;;;6.29;100.00
59787;BME280;45672;51.612;5.536;2024-01-30T03:02:12;102349.75;;;6.34;100.00
59787;BME280;45672;51.612;5.536;2024-01-30T03:04:37;102348.97;;;6.32;100.00
59787;BME280;45672;51.612;5.536;2024-01-30T03:07:02;102346.69;;;6.26;100.00
59787;BME280;45672;51.612;5.536;2024-01-30T03:09:28;102341.22;;;6.29;100.00
59787;BME280;45672;51.612;5.536;2024-01-30T03:11:54;102342.34;;;6.25;100.00
59787;BME280;45672;51.612;5.536;2024-01-30T03:14:19;102337.06;;;6.25;100.00
59787;BME280;45672;51.612;5.536;2024-01-30T03:16:44;102338.56;;;6.29;100.00
59787;BME280;45672;51.612;5.536;2024-01-30T03:19:09;102335.19;;;6.27;100.00
59787;BME280;45672;51.612;5.536;2024-01-30T03:21:35;102325.72;;;6.23;100.00
59787;BME280;45672;51.612;5.536;2024-01-30T03:24:00;102318.53;;;6.25;100.00
59787;BME280;45672;51.612;5.536;2024-01-30T03:26:26;102314.97;;;6.26;100.00
59787;BME280;45672;51.612;5.536;2024-01-30T03:28:51;102318.44;;;6.27;100.00
59787;BME280;45672;51.612;5.536;2024-01-30T03:31:16;102311.41;;;6.27;100.00
59787;BME280;45672;51.612;5.536;2024-01-30T03:33:42;102307.13;;;6.25;100.00
59787;BME280;45672;51.612;5.536;2024-01-30T03:36:08;102312.41;;;6.25;100.00
59787;BME280;45672;51.612;5.536;2024-01-30T03:38:33;102309.09;;;6.21;100.00
59787;BME280;45672;51.612;5.536;2024-01-30T03:40:59;102306.44;;;6.21;100.00
59787;BME280;45672;51.612;5.536;2024-01-30T03:43:24;102311.19;;;6.16;100.00
59787;BME280;45672;51.612;5.536;2024-01-30T03:45:50;102302.56;;;6.12;100.00
59787;BME280;45672;51.612;5.536;2024-01-30T03:48:15;102310.84;;;6.06;100.00
59787;BME280;45672;51.612;5.536;2024-01-30T03:50:40;102309.06;;;6.07;100.00
59787;BME280;45672;51.612;5.536;2024-01-30T03:53:06;102320.22;;;6.12;100.00
59787;BME280;45672;51.612;5.536;2024-01-30T03:55:31;102312.38;;;6.10;100.00
59787;BME280;45672;51.612;5.536;2024-01-30T03:57:56;102313.72;;;6.17;100.00
59787;BME280;45672;51.612;5.536;2024-01-30T04:00:22;102322.41;;;6.19;100.00
59787;BME280;45672;51.612;5.536;2024-01-30T04:02:47;102317.13;;;6.19;100.00
59787;BME280;45672;51.612;5.536;2024-01-30T04:05:13;102325.63;;;6.25;100.00
59787;BME280;45672;51.612;5.536;2024-01-30T04:07:38;102322.91;;;6.26;100.00
59787;BME280;45672;51.612;5.536;2024-01-30T04:10:04;102326.97;;;6.32;100.00
59787;BME280;45672;51.612;5.536;2024-01-30T04:12:31;102325.75;;;6.37;100.00
59787;BME280;45672;51.612;5.536;2024-01-30T04:14:57;102330.84;;;6.41;100.00
59787;BME280;45672;51.612;5.536;2024-01-30T04:17:22;102325.47;;;6.42;100.00
59787;BME280;45672;51.612;5.536;2024-01-30T04:19:47;102321.72;;;6.46;100.00
59787;BME280;45672;51.612;5.536;2024-01-30T04:22:13;102318.78;;;6.51;100.00
59787;BME280;45672;51.612;5.536;2024-01-30T04:24:38;102312.38;;;6.55;100.00
59787;BME280;45672;51.612;5.536;2024-01-30T04:27:04;102315.97;;;6.54;100.00
59787;BME280;45672;51.612;5.536;2024-01-30T04:29:29;102321.81;;;6.59;100.00
59787;BME280;45672;51.612;5.536;2024-01-30T04:31:54;102312.88;;;6.62;100.00
59787;BME280;45672;51.612;5.536;2024-01-30T04:34:19;102317.03;;;6.66;100.00
59787;BME280;45672;51.612;5.536;2024-01-30T04:36:45;102309.00;;;6.67;100.00
59787;BME280;45672;51.612;5.536;2024-01-30T04:39:11;102308.81;;;6.70;100.00
59787;BME280;45672;51.612;5.536;2024-01-30T04:41:36;102302.56;;;6.71;100.00
59787;BME280;45672;51.612;5.536;2024-01-30T04:44:01;102295.28;;;6.75;100.00
59787;BME280;45672;51.612;5.536;2024-01-30T04:46:27;102292.84;;;6.72;100.00
59787;BME280;45672;51.612;5.536;2024-01-30T04:48:52;102281.41;;;6.71;100.00
59787;BME280;45672;51.612;5.536;2024-01-30T04:51:17;102285.47;;;6.77;100.00
59787;BME280;45672;51.612;5.536;2024-01-30T04:53:42;102284.81;;;6.73;100.00
59787;BME280;45672;51.612;5.536;2024-01-30T04:56:08;102285.47;;;6.77;100.00
59787;BME280;45672;51.612;5.536;2024-01-30T04:58:33;102285.38;;;6.79;100.00
59787;BME280;45672;51.612;5.536;2024-01-30T05:00:58;102285.19;;;6.82;100.00
59787;BME280;45672;51.612;5.536;2024-01-30T05:03:24;102285.75;;;6.87;100.00
59787;BME280;45672;51.612;5.536;2024-01-30T05:05:49;102297.19;;;6.87;100.00
59787;BME280;45672;51.612;5.536;2024-01-30T05:08:15;102295.41;;;6.88;100.00
59787;BME280;45672;51.612;5.536;2024-01-30T05:10:40;102296.34;;;6.87;100.00
59787;BME280;45672;51.612;5.536;2024-01-30T05:13:05;102297.19;;;6.87;100.00
59787;BME280;45672;51.612;5.536;2024-01-30T05:15:31;102297.19;;;6.87;100.00
59787;BME280;45672;51.612;5.536;2024-01-30T05:17:56;102297.09;;;6.89;100.00
59787;BME280;45672;51.612;5.536;2024-01-30T05:20:21;102294.53;;;6.87;100.00
59787;BME280;45672;51.612;5.536;2024-01-30T05:22:47;102286.69;;;6.86;100.00
59787;BME280;45672;51.612;5.536;2024-01-30T05:25:12;102291.06;;;6.87;100.00
59787;BME280;45672;51.612;5.536;2024-01-30T05:27:38;102285.09;;;6.83;100.00
59787;BME280;45672;51.612;5.536;2024-01-30T05:30:07;102298.06;;;6.88;100.00
59787;BME280;45672;51.612;5.536;2024-01-30T05:32:33;102299.00;;;6.87;100.00
59787;BME280;45672;51.612;5.536;2024-01-30T05:34:59;102296.34;;;6.87;100.00
59787;BME280;45672;51.612;5.536;2024-01-30T05:37:24;102289.25;;;6.87;100.00
59787;BME280;45672;51.612;5.536;2024-01-30T05:39:49;102292.75;;;6.88;100.00
59787;BME280;45672;51.612;5.536;2024-01-30T05:42:15;102291.78;;;6.89;100.00
59787;BME280;45672;51.612;5.536;2024-01-30T05:44:42;102297.00;;;6.90;100.00
59787;BME280;45672;51.612;5.536;2024-01-30T05:47:07;102293.41;;;6.92;100.00
59787;BME280;45672;51.612;5.536;2024-01-30T05:49:32;102297.56;;;6.96;100.00
59787;BME280;45672;51.612;5.536;2024-01-30T05:51:58;102299.19;;;6.98;100.00
59787;BME280;45672;51.612;5.536;2024-01-30T05:54:23;102299.19;;;6.98;100.00
59787;BME280;45672;51.612;5.536;2024-01-30T05:56:48;102291.97;;;7.00;100.00
59787;BME280;45672;51.612;5.536;2024-01-30T05:59:14;102294.44;;;7.03;100.00
59787;BME280;45672;51.612;5.536;2024-01-30T06:01:45;102288.00;;;7.07;100.00
59787;BME280;45672;51.612;5.536;2024-01-30T06:04:11;102282.91;;;7.04;100.00
59787;BME280;45672;51.612;5.536;2024-01-30T06:06:36;102292.25;;;7.10;100.00
59787;BME280;45672;51.612;5.536;2024-01-30T06:09:02;102299.06;;;7.14;100.00
59787;BME280;45672;51.612;5.536;2024-01-30T06:11:27;102293.56;;;7.17;100.00
59787;BME280;45672;51.612;5.536;2024-01-30T06:13:53;102286.56;;;7.16;100.00
59787;BME280;45672;51.612;5.536;2024-01-30T06:16:18;102290.72;;;7.20;100.00
59787;BME280;45672;51.612;5.536;2024-01-30T06:18:46;102292.31;;;7.23;100.00
59787;BME280;45672;51.612;5.536;2024-01-30T06:21:11;102300.16;;;7.24;100.00
59787;BME280;45672;51.612;5.536;2024-01-30T06:23:36;102301.03;;;7.25;100.00
59787;BME280;45672;51.612;5.536;2024-01-30T06:26:02;102305.19;;;7.29;100.00
59787;BME280;45672;51.612;5.536;2024-01-30T06:28:27;102302.34;;;7.32;100.00
59787;BME280;45672;51.612;5.536;2024-01-30T06:30:52;102310.19;;;7.34;100.00
59787;BME280;45672;51.612;5.536;2024-01-30T06:33:18;102310.94;;;7.36;100.00
59787;BME280;45672;51.612;5.536;2024-01-30T06:35:43;102309.06;;;7.38;100.00
59787;BME280;45672;51.612;5.536;2024-01-30T06:38:10;102307.44;;;7.35;100.00
59787;BME280;45672;51.612;5.536;2024-01-30T06:40:36;102316.03;;;7.39;100.00
59787;BME280;45672;51.612;5.536;2024-01-30T06:43:01;102314.25;;;7.39;100.00
59787;BME280;45672;51.612;5.536;2024-01-30T06:45:27;102305.53;;;7.37;100.00
59787;BME280;45672;51.612;5.536;2024-01-30T06:47:52;102318.56;;;7.40;100.00
59787;BME280;45672;51.612;5.536;2024-01-30T06:50:17;102311.91;;;7.35;100.00
59787;BME280;45672;51.612;5.536;2024-01-30T06:52:43;102320.78;;;7.34;100.00
59787;BME280;45672;51.612;5.536;2024-01-30T06:55:09;102334.38;;;7.42;100.00
59787;BME280;45672;51.612;5.536;2024-01-30T06:57:34;102326.25;;;7.45;100.00
59787;BME280;45672;51.612;5.536;2024-01-30T06:59:59;102324.91;;;7.52;100.00
59787;BME280;45672;51.612;5.536;2024-01-30T07:02:25;102320.13;;;7.57;100.00
59787;BME280;45672;51.612;5.536;2024-01-30T07:04:50;102333.00;;;7.64;100.00
59787;BME280;45672;51.612;5.536;2024-01-30T07:07:15;102338.94;;;7.67;100.00
59787;BME280;45672;51.612;5.536;2024-01-30T07:09:41;102349.53;;;7.67;100.00
59787;BME280;45672;51.612;5.536;2024-01-30T07:12:06;102347.56;;;7.71;100.00
59787;BME280;45672;51.612;5.536;2024-01-30T07:14:32;102356.03;;;7.76;100.00
59787;BME280;45672;51.612;5.536;2024-01-30T07:16:57;102349.81;;;7.77;100.00
59787;BME280;45672;51.612;5.536;2024-01-30T07:19:22;102354.22;;;7.91;100.00
59787;BME280;45672;51.612;5.536;2024-01-30T07:21:47;102357.31;;;7.98;100.00
59787;BME280;45672;51.612;5.536;2024-01-30T07:24:13;102363.25;;;8.01;100.00
59787;BME280;45672;51.612;5.536;2024-01-30T07:26:38;102350.75;;;8.03;100.00
59787;BME280;45672;51.612;5.536;2024-01-30T07:29:04;102355.66;;;8.09;100.00
59787;BME280;45672;51.612;5.536;2024-01-30T07:31:29;102353.56;;;8.15;100.00
59787;BME280;45672;51.612;5.536;2024-01-30T07:33:54;102358.44;;;8.21;100.00
59787;BME280;45672;51.612;5.536;2024-01-30T07:36:20;102359.16;;;8.23;100.00
59787;BME280;45672;51.612;5.536;2024-01-30T07:38:45;102368.72;;;8.25;100.00
59787;BME280;45672;51.612;5.536;2024-01-30T07:41:11;102372.03;;;8.29;100.00
59787;BME280;45672;51.612;5.536;2024-01-30T07:43:38;102363.13;;;8.30;100.00
59787;BME280;45672;51.612;5.536;2024-01-30T07:46:04;102368.22;;;8.33;100.00
59787;BME280;45672;51.612;5.536;2024-01-30T07:48:31;102369.91;;;8.34;100.00
59787;BME280;45672;51.612;5.536;2024-01-30T07:50:59;102367.38;;;8.33;100.00
59787;BME280;45672;51.612;5.536;2024-01-30T07:53:25;102371.31;;;8.40;100.00
59787;BME280;45672;51.612;5.536;2024-01-30T07:55:50;102366.66;;;8.43;100.00
59787;BME280;45672;51.612;5.536;2024-01-30T07:58:15;102375.94;;;8.51;100.00
59787;BME280;45672;51.612;5.536;2024-01-30T08:00:41;102382.72;;;8.55;100.00
59787;BME280;45672;51.612;5.536;2024-01-30T08:03:06;102382.41;;;8.59;100.00
59787;BME280;45672;51.612;5.536;2024-01-30T08:05:32;102391.88;;;8.63;100.00
59787;BME280;45672;51.612;5.536;2024-01-30T08:07:57;102391.66;;;8.67;100.00
59787;BME280;45672;51.612;5.536;2024-01-30T08:10:22;102395.06;;;8.69;100.00
59787;BME280;45672;51.612;5.536;2024-01-30T08:12:48;102395.69;;;8.72;100.00
59787;BME280;45672;51.612;5.536;2024-01-30T08:15:13;102393.03;;;8.72;100.00
59787;BME280;45672;51.612;5.536;2024-01-30T08:17:38;102393.03;;;8.72;100.00
59787;BME280;45672;51.612;5.536;2024-01-30T08:20:04;102397.50;;;8.72;100.00
59787;BME280;45672;51.612;5.536;2024-01-30T08:22:30;102403.66;;;8.72;100.00
59787;BME280;45672;51.612;5.536;2024-01-30T08:24:56;102402.72;;;8.73;100.00
59787;BME280;45672;51.612;5.536;2024-01-30T08:27:21;102395.19;;;8.80;100.00
59787;BME280;45672;51.612;5.536;2024-01-30T08:29:46;102391.38;;;8.84;100.00
59787;BME280;45672;51.612;5.536;2024-01-30T08:32:11;102394.75;;;8.86;100.00
59787;BME280;45672;51.612;5.536;2024-01-30T08:34:37;102394.84;;;8.85;100.00
59787;BME280;45672;51.612;5.536;2024-01-30T08:37:02;102391.16;;;8.87;100.00
59787;BME280;45672;51.612;5.536;2024-01-30T08:39:28;102395.09;;;8.94;100.00
59787;BME280;45672;51.612;5.536;2024-01-30T08:41:53;102393.03;;;8.98;100.00
59787;BME280;45672;51.612;5.536;2024-01-30T08:44:19;102397.63;;;9.09;100.00
59787;BME280;45672;51.612;5.536;2024-01-30T08:46:44;102389.53;;;9.10;100.00
59787;BME280;45672;51.612;5.536;2024-01-30T08:49:11;102396.44;;;9.13;100.00
59787;BME280;45672;51.612;5.536;2024-01-30T08:51:38;102388.72;;;9.10;100.00
59787;BME280;45672;51.612;5.536;2024-01-30T08:54:04;102404.63;;;9.23;100.00
59787;BME280;45672;51.612;5.536;2024-01-30T08:56:29;102401.53;;;9.29;100.00
59787;BME280;45672;51.612;5.536;2024-01-30T08:58:54;102399.63;;;9.31;100.00
59787;BME280;45672;51.612;5.536;2024-01-30T09:01:20;102404.72;;;9.34;100.00
59787;BME280;45672;51.612;5.536;2024-01-30T09:03:45;102397.47;;;9.36;100.00
59787;BME280;45672;51.612;5.536;2024-01-30T09:06:12;102398.66;;;9.32;100.00
59787;BME280;45672;51.612;5.536;2024-01-30T09:08:38;102402.78;;;9.36;100.00
59787;BME280;45672;51.612;5.536;2024-01-30T09:11:14;102410.34;;;9.42;100.00
59787;BME280;45672;51.612;5.536;2024-01-30T09:13:40;102403.00;;;9.46;100.00
59787;BME280;45672;51.612;5.536;2024-01-30T09:16:06;102405.44;;;9.49;100.00
59787;BME280;45672;51.612;5.536;2024-01-30T09:18:32;102407.75;;;9.54;100.00
59787;BME280;45672;51.612;5.536;2024-01-30T09:20:57;102404.03;;;9.56;100.00
59787;BME280;45672;51.612;5.536;2024-01-30T09:23:23;102415.81;;;9.65;100.00
59787;BME280;45672;51.612;5.536;2024-01-30T09:25:49;102407.09;;;9.63;100.00
59787;BME280;45672;51.612;5.536;2024-01-30T09:28:14;102416.97;;;9.74;100.00
59787;BME280;45672;51.612;5.536;2024-01-30T09:30:40;102411.44;;;9.77;100.00
59787;BME280;45672;51.612;5.536;2024-01-30T09:33:06;102421.72;;;9.81;100.00
59787;BME280;45672;51.612;5.536;2024-01-30T09:35:32;102416.53;;;9.80;100.00
59787;BME280;45672;51.612;5.536;2024-01-30T09:37:57;102427.44;;;9.88;100.00
59787;BME280;45672;51.612;5.536;2024-01-30T09:40:23;102430.59;;;9.93;100.00
59787;BME280;45672;51.612;5.536;2024-01-30T09:42:50;102436.34;;;10.00;100.00
59787;BME280;45672;51.612;5.536;2024-01-30T09:45:17;102430.28;;;9.98;100.00
59787;BME280;45672;51.612;5.536;2024-01-30T09:47:43;102429.94;;;10.03;100.00
59787;BME280;45672;51.612;5.536;2024-01-30T09:50:12;102443.53;;;10.11;100.00
59787;BME280;45672;51.612;5.536;2024-01-30T09:52:38;102435.94;;;10.17;100.00
59787;BME280;45672;51.612;5.536;2024-01-30T09:55:05;102443.13;;;10.28;100.00
59787;BME280;45672;51.612;5.536;2024-01-30T09:57:30;102444.53;;;10.34;100.00
59787;BME280;45672;51.612;5.536;2024-01-30T09:59:56;102444.16;;;10.39;100.00
59787;BME280;45672;51.612;5.536;2024-01-30T10:02:22;102440.44;;;10.41;100.00
59787;BME280;45672;51.612;5.536;2024-01-30T10:04:49;102440.31;;;10.43;100.00
59787;BME280;45672;51.612;5.536;2024-01-30T10:07:15;102438.41;;;10.45;100.00
59787;BME280;45672;51.612;5.536;2024-01-30T10:09:41;102443.50;;;10.48;100.00
59787;BME280;45672;51.612;5.536;2024-01-30T10:12:07;102455.50;;;10.54;100.00
59787;BME280;45672;51.612;5.536;2024-01-30T10:14:33;102445.47;;;10.57;100.00
59787;BME280;45672;51.612;5.536;2024-01-30T10:17:01;102448.00;;;10.59;100.00
59787;BME280;45672;51.612;5.536;2024-01-30T10:19:26;102453.56;;;10.56;100.00
59787;BME280;45672;51.612;5.536;2024-01-30T10:21:52;102450.19;;;10.54;100.00
59787;BME280;45672;51.612;5.536;2024-01-30T10:24:18;102443.38;;;10.49;100.00
59787;BME280;45672;51.612;5.536;2024-01-30T10:26:44;102443.94;;;10.42;100.00
59787;BME280;45672;51.612;5.536;2024-01-30T10:29:09;102461.19;;;10.49;100.00
59787;BME280;45672;51.612;5.536;2024-01-30T10:31:34;102459.47;;;10.48;100.00
59787;BME280;45672;51.612;5.536;2024-01-30T10:34:00;102464.78;;;10.48;100.00
59787;BME280;45672;51.612;5.536;2024-01-30T10:36:28;102463.84;;;10.49;100.00
59787;BME280;45672;51.612;5.536;2024-01-30T10:38:55;102462.28;;;10.58;100.00
59787;BME280;45672;51.612;5.536;2024-01-30T10:41:26;102462.66;;;10.64;100.00
59787;BME280;45672;51.612;5.536;2024-01-30T10:44:03;102465.00;;;10.69;100.00
59787;BME280;45672;51.612;5.536;2024-01-30T10:46:33;102462.34;;;10.69;100.00
59787;BME280;45672;51.612;5.536;2024-01-30T10:49:00;102455.34;;;10.79;100.00
59787;BME280;45672;51.612;5.536;2024-01-30T10:51:28;102454.97;;;10.84;100.00
59787;BME280;45672;51.612;5.536;2024-01-30T10:53:55;102460.31;;;10.84;100.00
59787;BME280;45672;51.612;5.536;2024-01-30T10:56:21;102457.75;;;10.82;100.00
59787;BME280;45672;51.612;5.536;2024-01-30T10:58:50;102463.09;;;10.82;100.00
59787;BME280;45672;51.612;5.536;2024-01-30T11:01:21;102468.06;;;10.87;100.00
59787;BME280;45672;51.612;5.536;2024-01-30T11:03:54;102457.78;;;10.94;100.00
59787;BME280;45672;51.612;5.536;2024-01-30T11:06:23;102463.50;;;11.00;100.00
59787;BME280;45672;51.612;5.536;2024-01-30T11:09:06;102472.22;;;11.02;100.00
59787;BME280;45672;51.612;5.536;2024-01-30T11:11:56;102479.84;;;11.07;100.00
59787;BME280;45672;51.612;5.536;2024-01-30T11:14:26;102470.19;;;11.06;100.00
59787;BME280;45672;51.612;5.536;2024-01-30T11:16:52;102464.09;;;11.04;100.00
59787;BME280;45672;51.612;5.536;2024-01-30T11:19:30;102471.75;;;10.97;100.00
59787;BME280;45672;51.612;5.536;2024-01-30T11:21:56;102461.91;;;10.86;100.00
59787;BME280;45672;51.612;5.536;2024-01-30T11:24:24;102472.31;;;10.90;100.00
59787;BME280;45672;51.612;5.536;2024-01-30T11:26:56;102459.81;;;10.90;100.00
59787;BME280;45672;51.612;5.536;2024-01-30T11:29:27;102459.50;;;10.95;100.00
59787;BME280;45672;51.612;5.536;2024-01-30T11:31:57;102456.00;;;11.06;100.00
59787;BME280;45672;51.612;5.536;2024-01-30T11:34:22;102463.41;;;11.13;100.00
59787;BME280;45672;51.612;5.536;2024-01-30T11:36:56;102465.59;;;11.19;100.00
59787;BME280;45672;51.612;5.536;2024-01-30T11:39:27;102464.88;;;11.29;100.00
59787;BME280;45672;51.612;5.536;2024-01-30T11:41:55;102461.22;;;11.41;100.00
59787;BME280;45672;51.612;5.536;2024-01-30T11:44:21;102463.31;;;11.49;100.00
59787;BME280;45672;51.612;5.536;2024-01-30T11:46:48;102458.94;;;11.59;100.00
59787;BME280;45672;51.612;5.536;2024-01-30T11:49:14;102468.03;;;11.68;100.00
59787;BME280;45672;51.612;5.536;2024-01-30T11:51:39;102476.75;;;11.70;100.00
59787;BME280;45672;51.612;5.536;2024-01-30T11:54:05;102479.06;;;11.75;100.00
59787;BME280;45672;51.612;5.536;2024-01-30T11:56:30;102472.88;;;11.74;100.00
59787;BME280;45672;51.612;5.536;2024-01-30T11:58:56;102475.19;;;11.67;100.00
59787;BME280;45672;51.612;5.536;2024-01-30T12:01:21;102477.47;;;11.61;100.00
59787;BME280;45672;51.612;5.536;2024-01-30T12:03:50;102481.22;;;11.58;100.00
59787;BME280;45672;51.612;5.536;2024-01-30T12:06:16;102481.59;;;11.53;100.00
59787;BME280;45672;51.612;5.536;2024-01-30T12:08:41;102472.91;;;11.51;100.00
59787;BME280;45672;51.612;5.536;2024-01-30T12:11:07;102472.78;;;11.53;100.00
59787;BME280;45672;51.612;5.536;2024-01-30T12:13:32;102480.28;;;11.59;100.00
59787;BME280;45672;51.612;5.536;2024-01-30T12:15:58;102484.25;;;11.65;100.00
59787;BME280;45672;51.612;5.536;2024-01-30T12:18:23;102480.38;;;11.69;100.00
59787;BME280;45672;51.612;5.536;2024-01-30T12:21:01;102489.84;;;11.73;100.00
59787;BME280;45672;51.612;5.536;2024-01-30T12:23:28;102488.50;;;11.67;100.00
59787;BME280;45672;51.612;5.536;2024-01-30T12:25:53;102481.09;;;11.60;100.00
59787;BME280;45672;51.612;5.536;2024-01-30T12:28:20;102501.22;;;11.52;100.00
59787;BME280;45672;51.612;5.536;2024-01-30T12:30:45;102512.38;;;11.46;100.00
59787;BME280;45672;51.612;5.536;2024-01-30T12:33:16;102501.59;;;11.48;100.00
59787;BME280;45672;51.612;5.536;2024-01-30T12:35:45;102510.94;;;11.53;100.00
59787;BME280;45672;51.612;5.536;2024-01-30T12:38:11;102499.75;;;11.60;100.00
59787;BME280;45672;51.612;5.536;2024-01-30T12:40:36;102511.88;;;11.64;100.00
59787;BME280;45672;51.612;5.536;2024-01-30T12:43:02;102507.56;;;11.63;100.00